Airfield :
LOGIN :

Register | Disclaimer

   EN    FR    IT 

 










Legend :    VFR   Marginal VFR   IFR   Intensive IFR   Very Intensive IFR
Visi :
Ceiling :
>= 8 km
>= 3000ft
5 to 8 km
1000 to 3000 ft
1500m to 5 km
500 to 1000 ft
800 to 1500m
200 to 500 ft
< 800m
< 200 ft
Symbols :   Thunderstorms  Fog  Heavy snow  Heavy precipitations  Wind > 20 kt
SIGMETs :     Misc.  Thunderstorms  Icing  Turbulence  Mountain Waves  Volcanic Ashes






- Airport Elevation : 177 ft
- IATA code : BRI


LIBD - Palese Macchie Bari

CURRENT METAR :
  • 291050Z 23014KT CAVOK 26/12 Q1006

EXPIRED METARs :
  • 291020Z 22012KT CAVOK 25/12 Q1006
  • 290950Z 23013KT CAVOK 24/12 Q1006
  • 290920Z 21013KT 9999 FEW010 24/13 Q1006
  • 290850Z 21013KT CAVOK 24/13 Q1006
  • 290820Z 24013KT CAVOK 24/13 Q1006

TAF TAF LIBD
Valid from the 29 at 06:00 until the 30 at 06:00 UTC


290500Z 2906/3006 20012KT 9999 FEW050
TEMPO 2912/2916 SHRA



MET'MAP, your aeronautical weather chart ! - Copyright ORBIFLY December 2007 - Disclaimer

ORBIFLY MET'MAP TEAM :

Programming & Development : Alexandra Zaïnal
Original concept : Baudouin d'Aumeries
Technical & hardware support : Manuel Goepfert
Assistance : Marc-Olivier Méhu




SOURCES & CREDITS :

   NOAA